Time;durP1;ratioP1;P1;durP2;ratioP2;P2;SDS_P1;SDS_P2;PMS_P1;PMS_P2;Temp;Humidity;BMP_temperature;BMP_pressure;BME280_temperature;BME280_humidity;BME280_pressure;Samples;Min_cycle;Max_cycle;Signal;HPM_P1;HPM_P2
2022/07/20 00:00:08;;;;;;;4.80;3.20;;;;;;;19.55;59.88;101612.16;107261;1251;70124;-68
2022/07/20 00:03:07;;;;;;;4.60;3.10;;;;;;;19.43;60.58;101613.99;107161;1250;64841;-67
2022/07/20 00:05:36;;;;;;;6.00;3.20;;;;;;;19.28;61.10;101612.40;107200;1250;59050;-65
2022/07/20 00:08:05;;;;;;;5.80;3.20;;;;;;;19.19;61.39;101609.73;107011;1253;59006;-68
2022/07/20 00:13:23;;;;;;;6.10;3.00;;;;;;;19.07;62.49;101613.00;107171;1250;72200;-69
2022/07/20 00:15:52;;;;;;;7.40;3.40;;;;;;;19.01;62.23;101609.45;106985;1252;59060;-67
2022/07/20 00:18:21;;;;;;;7.40;3.00;;;;;;;19.05;61.53;101611.38;107163;1250;63289;-68
2022/07/20 00:20:50;;;;;;;6.70;3.10;;;;;;;19.02;61.95;101606.77;107168;1250;59020;-68
2022/07/20 00:23:19;;;;;;;9.10;3.40;;;;;;;18.97;62.48;101604.44;107276;1250;61034;-69
2022/07/20 00:25:48;;;;;;;7.10;3.50;;;;;;;18.89;62.56;101600.17;107378;1250;73533;-67
2022/07/20 00:28:16;;;;;;;6.60;3.30;;;;;;;18.82;62.53;101601.56;107230;1250;71574;-68
2022/07/20 00:30:46;;;;;;;5.50;3.20;;;;;;;18.72;62.94;101603.21;107305;1250;71273;-68
2022/07/20 00:33:15;;;;;;;4.40;3.00;;;;;;;18.64;63.50;101598.44;107282;1250;64730;-72
2022/07/20 00:35:44;;;;;;;8.80;3.20;;;;;;;18.55;64.13;101596.27;107320;1250;59072;-70
2022/07/20 00:38:14;;;;;;;5.10;3.00;;;;;;;18.48;64.26;101593.06;107196;1250;58254;-68
2022/07/20 00:40:43;;;;;;;4.70;2.90;;;;;;;18.40;63.12;101593.76;107258;1250;72740;-70
2022/07/20 00:43:11;;;;;;;5.20;3.10;;;;;;;18.30;64.32;101588.73;107215;1250;72491;-68
2022/07/20 00:45:40;;;;;;;6.50;3.20;;;;;;;18.20;64.93;101590.48;107171;1250;60496;-68
2022/07/20 00:48:10;;;;;;;6.40;3.40;;;;;;;18.23;64.79;101584.61;107223;1250;74475;-68
2022/07/20 00:50:39;;;;;;;9.40;3.80;;;;;;;18.22;65.08;101586.26;107223;1249;62048;-69
2022/07/20 00:53:08;;;;;;;5.50;3.30;;;;;;;18.32;64.26;101583.02;107059;1253;59104;-72
2022/07/20 00:55:37;;;;;;;5.40;3.20;;;;;;;18.47;63.61;101579.77;107235;1250;62999;-71
2022/07/20 00:58:06;;;;;;;5.20;3.00;;;;;;;18.59;63.05;101576.14;107232;1250;72621;-67
2022/07/20 01:00:35;;;;;;;4.40;2.90;;;;;;;18.57;63.72;101579.30;107102;1250;60541;-67
2022/07/20 01:03:04;;;;;;;6.40;3.20;;;;;;;18.47;64.08;101578.29;106797;1251;63628;-68
2022/07/20 01:05:33;;;;;;;4.60;3.10;;;;;;;18.37;64.23;101580.70;106991;1250;58926;-67
2022/07/20 01:08:02;;;;;;;10.20;3.70;;;;;;;18.25;64.65;101576.64;106967;1253;59036;-68
2022/07/20 01:10:31;;;;;;;6.30;3.10;;;;;;;18.12;65.42;101576.79;107108;1250;72216;-69
2022/07/20 01:13:00;;;;;;;5.70;3.00;;;;;;;18.04;65.51;101577.70;107030;1253;70832;-68
2022/07/20 01:15:29;;;;;;;8.20;3.00;;;;;;;17.96;65.60;101582.77;106389;1250;858350;-66
2022/07/20 01:17:58;;;;;;;7.60;3.30;;;;;;;17.88;65.74;101584.94;107094;1250;72562;-64
2022/07/20 01:20:29;;;;;;;4.60;3.10;;;;;;;17.80;66.31;101588.17;107022;1251;59490;-65
2022/07/20 01:22:58;;;;;;;4.20;3.00;;;;;;;17.72;66.81;101590.21;107071;1253;57530;-68
2022/07/20 01:25:27;;;;;;;6.60;3.00;;;;;;;17.63;67.49;101592.08;107262;1250;71082;-67
2022/07/20 01:27:56;;;;;;;7.50;3.40;;;;;;;17.57;67.26;101589.58;107178;1250;70462;-66
2022/07/20 01:30:25;;;;;;;5.80;3.70;;;;;;;17.54;67.49;101585.65;107260;1250;67909;-67
2022/07/20 01:32:54;;;;;;;6.40;2.90;;;;;;;17.49;67.77;101583.77;107110;1250;73383;-67
2022/07/20 01:35:22;;;;;;;5.20;3.50;;;;;;;17.47;66.84;101584.67;107180;1250;61607;-66
2022/07/20 01:37:52;;;;;;;8.50;3.50;;;;;;;17.40;67.76;101580.48;107193;1250;60788;-65
2022/07/20 01:40:21;;;;;;;6.90;4.00;;;;;;;17.37;68.22;101579.58;107172;1250;72384;-67
2022/07/20 01:42:50;;;;;;;5.10;3.10;;;;;;;17.35;67.86;101573.73;107270;1250;70376;-66
2022/07/20 01:45:19;;;;;;;5.50;2.90;;;;;;;17.30;68.68;101576.46;107253;1250;69750;-67
2022/07/20 01:47:48;;;;;;;5.00;3.00;;;;;;;17.27;68.73;101576.27;107197;1251;71964;-68
2022/07/20 01:50:17;;;;;;;5.10;3.20;;;;;;;17.23;68.43;101573.39;107326;1250;60132;-68
2022/07/20 01:52:46;;;;;;;6.80;3.40;;;;;;;17.15;69.13;101570.04;107206;1252;61000;-67
2022/07/20 01:55:15;;;;;;;4.20;3.20;;;;;;;17.12;69.06;101566.77;107213;1250;72655;-71
2022/07/20 01:57:44;;;;;;;9.80;3.70;;;;;;;17.05;69.65;101568.77;107221;1253;70904;-66
2022/07/20 02:00:14;;;;;;;6.00;3.30;;;;;;;17.02;69.09;101568.14;107151;1250;69772;-67
2022/07/20 02:02:49;;;;;;;5.50;3.00;;;;;;;16.97;69.58;101566.71;107099;1250;74102;-67
2022/07/20 02:05:19;;;;;;;6.60;3.70;;;;;;;16.93;70.18;101567.18;107147;1251;59609;-72
2022/07/20 02:07:48;;;;;;;6.30;3.40;;;;;;;16.95;70.24;101566.49;107133;1250;61244;-72
2022/07/20 02:10:17;;;;;;;7.10;3.50;;;;;;;16.93;70.04;101562.63;107121;1250;74537;-67
2022/07/20 02:12:45;;;;;;;9.60;3.60;;;;;;;16.86;70.63;101564.45;107086;1253;72245;-65
2022/07/20 02:18:07;;;;;;;7.20;3.10;;;;;;;16.78;71.08;101564.78;107199;1250;73254;-65
2022/07/20 02:20:37;;;;;;;6.50;3.50;;;;;;;16.83;70.38;101563.28;107205;1250;60374;-67
2022/07/20 02:23:08;;;;;;;8.80;3.70;;;;;;;16.83;70.71;101562.42;107162;1251;61220;-69
2022/07/20 02:25:38;;;;;;;6.30;3.50;;;;;;;16.85;70.60;101564.55;107166;1251;72683;-67
2022/07/20 02:28:07;;;;;;;5.60;3.70;;;;;;;16.90;70.26;101568.68;107157;1250;70460;-67
2022/07/20 02:30:37;;;;;;;5.10;3.30;;;;;;;16.89;70.49;101570.69;107153;1250;67779;-65
2022/07/20 02:33:06;;;;;;;6.90;3.60;;;;;;;16.85;70.33;101568.36;107077;1250;73143;-67
2022/07/20 02:35:34;;;;;;;8.40;3.40;;;;;;;16.78;70.55;101567.27;107134;1251;60895;-68
2022/07/20 02:38:03;;;;;;;7.20;3.80;;;;;;;16.70;70.55;101563.31;107251;1251;60734;-68
2022/07/20 02:40:32;;;;;;;9.00;3.60;;;;;;;16.61;71.18;101560.22;107268;1252;71742;-70
2022/07/20 02:43:01;;;;;;;8.90;3.40;;;;;;;16.51;71.06;101552.39;107222;1250;69581;-67
2022/07/20 02:45:30;;;;;;;6.00;3.80;;;;;;;16.51;71.73;101559.81;107242;1250;70870;-69
2022/07/20 02:48:02;;;;;;;6.20;3.70;;;;;;;16.47;72.23;101560.34;107290;1250;74720;-68
2022/07/20 02:50:38;;;;;;;9.60;3.70;;;;;;;16.43;72.42;101560.27;107341;1251;60189;-68
2022/07/20 02:53:08;;;;;;;7.40;4.10;;;;;;;16.40;72.64;101560.55;107336;1250;59779;-67
2022/07/20 02:55:39;;;;;;;9.10;3.70;;;;;;;16.38;72.72;101567.17;107332;1250;70902;-66
2022/07/20 02:58:10;;;;;;;8.10;4.10;;;;;;;16.37;72.79;101563.09;107182;1253;69509;-69
2022/07/20 03:00:40;;;;;;;7.50;3.90;;;;;;;16.35;72.79;101563.23;107305;1250;68436;-67
2022/07/20 03:03:10;;;;;;;8.50;3.90;;;;;;;16.32;73.14;101566.11;107150;1251;73460;-67
2022/07/20 03:05:39;;;;;;;8.50;4.00;;;;;;;16.31;72.89;101569.59;107300;1250;61511;-68
2022/07/20 03:08:08;;;;;;;8.70;3.90;;;;;;;16.29;72.84;101570.45;107318;1250;60827;-69
2022/07/20 03:10:37;;;;;;;12.80;4.00;;;;;;;16.30;72.99;101566.64;107226;1250;74812;-68
2022/07/20 03:13:06;;;;;;;7.90;4.20;;;;;;;16.30;73.13;101569.99;107272;1250;70700;-67
2022/07/20 03:15:35;;;;;;;7.20;4.50;;;;;;;16.32;73.05;101572.97;107221;1251;68637;-69
2022/07/20 03:18:04;;;;;;;8.30;4.10;;;;;;;16.32;73.05;101574.39;107308;1250;74185;-69
2022/07/20 03:20:33;;;;;;;9.00;5.20;;;;;;;16.32;72.96;101575.96;107255;1251;61168;-69
2022/07/20 03:23:04;;;;;;;8.30;4.00;;;;;;;16.34;73.11;101577.41;107198;1251;61374;-70
2022/07/20 03:25:33;;;;;;;7.20;3.70;;;;;;;16.38;72.93;101582.32;107154;1251;74496;-71
2022/07/20 03:28:02;;;;;;;11.50;4.10;;;;;;;16.46;72.53;101580.44;107230;1250;72432;-70
2022/07/20 03:30:31;;;;;;;9.30;4.70;;;;;;;16.52;72.50;101580.84;107067;1251;70436;-70
2022/07/20 03:33:00;;;;;;;15.50;5.00;;;;;;;16.56;72.46;101582.61;107243;1250;74675;-69
2022/07/20 03:35:30;;;;;;;11.50;4.40;;;;;;;16.60;72.30;101585.56;107282;1250;61818;-69
2022/07/20 03:37:59;;;;;;;12.90;5.10;;;;;;;16.65;72.07;101584.95;109316;1250;59463;-71
2022/07/20 03:40:27;;;;;;;9.20;4.50;;;;;;;16.71;71.94;101586.65;107371;1251;72731;-70
2022/07/20 03:42:56;;;;;;;12.60;4.90;;;;;;;16.80;71.61;101589.72;107276;1251;72886;-66
2022/07/20 03:45:25;;;;;;;13.10;5.20;;;;;;;16.95;71.04;101592.69;107281;1251;67954;-68
2022/07/20 03:47:56;;;;;;;12.20;4.80;;;;;;;17.13;70.31;101591.83;107288;1251;73178;-75
2022/07/20 03:50:25;;;;;;;12.20;5.10;;;;;;;17.26;69.89;101591.09;107318;1250;62558;-71
2022/07/20 03:52:55;;;;;;;14.80;5.20;;;;;;;17.35;69.56;101593.66;107355;1251;61008;-70
2022/07/20 03:55:24;;;;;;;15.00;4.90;;;;;;;17.45;69.37;101596.25;107279;1250;63432;-70
2022/07/20 03:57:53;;;;;;;9.10;4.80;;;;;;;17.56;69.14;101592.30;107382;1251;71394;-69
2022/07/20 04:00:22;;;;;;;10.20;4.90;;;;;;;17.67;68.37;101588.56;107281;1251;61643;-71
2022/07/20 04:02:51;;;;;;;11.50;4.80;;;;;;;17.79;67.96;101592.58;107129;1250;63665;-71
2022/07/20 04:05:21;;;;;;;11.10;5.00;;;;;;;17.91;66.93;101587.63;107103;1250;58525;-71
2022/07/20 04:07:50;;;;;;;15.00;5.60;;;;;;;18.06;66.07;101587.89;107115;1250;59150;-72
2022/07/20 04:10:19;;;;;;;12.40;5.00;;;;;;;18.13;65.93;101588.15;107053;1250;74453;-77
2022/07/20 04:12:52;;;;;;;11.40;4.70;;;;;;;18.20;65.98;101590.30;107240;1251;62239;-74
2022/07/20 04:15:21;;;;;;;16.30;5.70;;;;;;;18.29;65.59;101591.12;107148;1250;70013;-78
2022/07/20 04:17:50;;;;;;;12.50;5.60;;;;;;;18.38;64.91;101589.42;106895;1253;76510;-77
2022/07/20 04:20:18;;;;;;;12.30;5.00;;;;;;;18.52;64.53;101591.33;107077;1251;61214;-75
2022/07/20 04:22:47;;;;;;;13.80;5.20;;;;;;;18.63;63.98;101590.95;107044;1251;57595;-79
2022/07/20 04:25:16;;;;;;;13.40;5.50;;;;;;;18.71;63.86;101590.23;107217;1251;62990;-81
2022/07/20 04:27:45;;;;;;;12.60;5.30;;;;;;;18.80;62.73;101595.20;107054;1251;72189;-80
2022/07/20 04:30:14;;;;;;;15.20;5.70;;;;;;;18.90;62.65;101595.91;106976;1253;71202;-70
2022/07/20 04:32:43;;;;;;;11.80;5.40;;;;;;;18.95;62.57;101597.18;107131;1253;73439;-74
2022/07/20 04:35:12;;;;;;;11.50;5.50;;;;;;;19.01;62.44;101599.27;107133;1252;61473;-76
2022/07/20 04:37:41;;;;;;;10.50;5.90;;;;;;;19.08;61.55;101600.54;107270;1251;58435;-83
2022/07/20 04:40:10;;;;;;;16.30;5.80;;;;;;;19.16;61.77;101601.91;107216;1250;72984;-80
2022/07/20 04:42:39;;;;;;;13.50;5.40;;;;;;;19.21;61.39;101600.35;107178;1254;61428;-82
2022/07/20 04:45:09;;;;;;;17.00;6.10;;;;;;;19.27;61.23;101600.48;107178;1252;70454;-78
2022/07/20 04:47:38;;;;;;;11.50;5.40;;;;;;;19.32;60.85;101598.08;107092;1252;64743;-86
2022/07/20 04:50:08;;;;;;;11.90;5.40;;;;;;;19.40;60.41;101601.58;107093;1253;59032;-85
2022/07/20 04:52:37;;;;;;;14.60;5.70;;;;;;;19.43;60.21;101602.15;107237;1250;59481;-82
2022/07/20 04:55:07;;;;;;;19.80;5.70;;;;;;;19.45;60.08;101598.23;107212;1253;74073;-82
2022/07/20 04:57:36;;;;;;;11.80;5.20;;;;;;;19.49;59.76;101598.80;107140;1253;73516;-83
2022/07/20 05:00:06;;;;;;;9.40;5.20;;;;;;;19.54;59.42;101600.36;107310;1251;71022;-82
2022/07/20 05:02:35;;;;;;;9.60;4.80;;;;;;;19.61;59.26;101599.03;107323;1251;63015;-83
2022/07/20 05:05:11;;;;;;;12.20;5.00;;;;;;;19.72;58.90;101599.04;107340;1251;58828;-80
2022/07/20 05:07:40;;;;;;;10.40;4.80;;;;;;;19.77;58.61;101594.12;107242;1251;60535;-84
2022/07/20 05:10:10;;;;;;;16.10;6.20;;;;;;;19.87;58.34;101591.90;107135;1253;63540;-81
2022/07/20 05:12:56;;;;;;;12.00;5.10;;;;;;;20.02;57.86;101589.59;107171;1252;73735;-84
2022/07/20 05:15:25;;;;;;;9.00;4.30;;;;;;;20.18;57.13;101589.58;107286;1252;70172;-83
2022/07/20 05:18:01;;;;;;;10.10;4.40;;;;;;;20.29;56.06;101587.42;107206;1250;74851;-81
2022/07/20 05:20:30;;;;;;;7.70;3.80;;;;;;;20.33;56.17;101586.43;107419;1250;60600;-85
2022/07/20 05:22:59;;;;;;;9.90;4.20;;;;;;;20.41;56.11;101589.02;107371;1250;60010;-83
2022/07/20 05:25:27;;;;;;;9.80;4.30;;;;;;;20.54;55.63;101586.02;107140;1253;74502;-82
2022/07/20 05:27:57;;;;;;;10.90;4.60;;;;;;;20.62;55.07;101589.95;107319;1253;62237;-83
2022/07/20 05:30:28;;;;;;;11.50;4.80;;;;;;;20.72;55.02;101591.78;107135;1253;59160;-82
2022/07/20 05:32:57;;;;;;;9.50;4.20;;;;;;;20.85;54.52;101592.73;107242;1251;73892;-86
2022/07/20 05:35:26;;;;;;;8.80;4.00;;;;;;;20.96;54.27;101591.25;107125;1251;58988;-85
2022/07/20 05:37:55;;;;;;;9.10;4.60;;;;;;;21.10;53.86;101591.95;107363;1251;59036;-83
2022/07/20 05:40:24;;;;;;;9.90;4.50;;;;;;;21.21;53.86;101595.55;107187;1253;64373;-84
2022/07/20 05:42:53;;;;;;;9.30;4.00;;;;;;;21.32;52.92;101592.98;107020;1254;61632;-87
2022/07/20 05:45:22;;;;;;;13.00;4.20;;;;;;;21.45;52.91;101589.15;107254;1253;69815;-82
2022/07/20 05:47:50;;;;;;;10.40;3.70;;;;;;;21.60;52.44;101591.46;107175;1251;73538;-84
2022/07/20 05:50:19;;;;;;;9.20;3.80;;;;;;;21.73;51.91;101595.62;107346;1250;59118;-83
2022/07/20 05:52:48;;;;;;;11.50;4.00;;;;;;;21.86;51.50;101592.48;107305;1251;61177;-84
2022/07/20 05:55:18;;;;;;;11.70;4.10;;;;;;;21.96;51.18;101591.04;107351;1253;63008;-84
2022/07/20 05:57:47;;;;;;;9.60;3.90;;;;;;;22.07;50.06;101591.44;107361;1253;72289;-84
2022/07/20 06:00:17;;;;;;;8.10;3.70;;;;;;;22.22;50.62;101593.30;107366;1251;70139;-76
2022/07/20 06:02:46;;;;;;;6.60;3.40;;;;;;;22.36;50.40;101589.90;107434;1251;62435;-84
2022/07/20 06:05:15;;;;;;;6.40;3.20;;;;;;;22.51;48.56;101585.71;107463;1250;60734;-85
2022/07/20 06:07:44;;;;;;;8.20;3.30;;;;;;;22.65;49.54;101589.69;107432;1251;60437;-88
2022/07/20 06:10:14;;;;;;;6.10;3.50;;;;;;;22.79;48.73;101585.19;107493;1251;73535;-81
2022/07/20 06:12:42;;;;;;;6.80;3.40;;;;;;;22.89;48.36;101579.02;107210;1253;72759;-80
2022/07/20 06:15:12;;;;;;;8.40;3.50;;;;;;;22.99;48.34;101572.89;107320;1251;59689;-83
2022/07/20 06:17:42;;;;;;;6.40;3.20;;;;;;;23.10;46.70;101570.99;107492;1250;72072;-84
2022/07/20 06:20:13;;;;;;;11.10;3.40;;;;;;;23.28;46.84;101570.75;107634;1250;61281;-86
2022/07/20 06:22:44;;;;;;;5.90;3.30;;;;;;;23.39;46.17;101570.00;107691;1253;59126;-84
2022/07/20 06:25:15;;;;;;;10.40;3.30;;;;;;;23.53;45.88;101567.63;107359;1252;73638;-87
2022/07/20 06:27:44;;;;;;;4.50;2.40;;;;;;;23.68;44.58;101565.41;107407;1252;71867;-86
2022/07/20 06:30:13;;;;;;;9.60;3.20;;;;;;;23.78;44.15;101561.52;107520;1251;70399;-80
2022/07/20 06:32:42;;;;;;;4.70;2.40;;;;;;;23.85;42.81;101559.03;107502;1251;63457;-84
2022/07/20 06:35:12;;;;;;;7.30;2.80;;;;;;;23.97;41.68;101554.67;107498;1251;60387;-85
2022/07/20 06:37:40;;;;;;;4.40;2.60;;;;;;;24.13;40.73;101553.48;107185;1250;60951;-84
2022/07/20 06:40:10;;;;;;;6.00;3.00;;;;;;;24.19;39.75;101548.84;107501;1251;62980;-86
2022/07/20 06:42:39;;;;;;;5.30;2.40;;;;;;;24.30;40.36;101546.27;107405;1250;72661;-86
2022/07/20 06:45:08;;;;;;;9.20;3.00;;;;;;;24.48;41.21;101543.85;107279;1251;71014;-83
2022/07/20 06:47:37;;;;;;;5.10;2.60;;;;;;;24.57;41.16;101542.29;107361;1252;62429;-86
2022/07/20 06:50:07;;;;;;;6.10;3.00;;;;;;;24.71;40.46;101544.83;107818;1251;58949;-84
2022/07/20 06:52:36;;;;;;;7.10;3.10;;;;;;;24.88;41.23;101544.73;107712;1251;60973;-93
2022/07/20 06:55:10;;;;;;;6.80;2.80;;;;;;;25.00;40.64;101542.41;107653;1251;73282;-87
2022/07/20 06:57:44;;;;;;;6.00;2.80;;;;;;;25.13;40.66;101539.58;108202;1249;61273;-91
2022/07/20 07:00:28;;;;;;;7.00;2.80;;;;;;;25.30;40.15;101534.27;107785;1251;60058;-83
2022/07/20 07:03:03;;;;;;;4.20;2.40;;;;;;;25.41;39.92;101532.22;107742;1253;63255;-85
2022/07/20 07:05:35;;;;;;;6.50;2.90;;;;;;;25.46;39.09;101528.12;107919;1251;57742;-80
2022/07/20 07:08:07;;;;;;;7.00;2.60;;;;;;;25.53;39.19;101518.52;108102;1251;60367;-90
2022/07/20 07:10:37;;;;;;;4.10;2.30;;;;;;;25.64;38.62;101516.25;108128;1250;62690;-92
2022/07/20 07:13:06;;;;;;;6.40;2.30;;;;;;;25.67;39.08;101511.63;107628;1250;72211;-88
2022/07/20 07:15:36;;;;;;;5.90;2.70;;;;;;;25.69;38.64;101509.95;107385;1250;70489;-87
2022/07/20 07:18:05;;;;;;;4.00;2.20;;;;;;;25.76;38.60;101507.91;107432;1250;74430;-83
2022/07/20 07:20:34;;;;;;;4.30;2.30;;;;;;;25.96;38.49;101507.96;107249;1254;59104;-84
2022/07/20 07:23:03;;;;;;;4.80;2.10;;;;;;;26.14;37.77;101506.80;107489;1251;58581;-82
2022/07/20 07:25:32;;;;;;;3.90;2.00;;;;;;;26.26;37.25;101506.86;107330;1250;73606;-87
2022/07/20 07:28:01;;;;;;;5.20;2.10;;;;;;;26.31;37.02;101506.69;107539;1251;72615;-85
2022/07/20 07:30:30;;;;;;;4.50;2.00;;;;;;;26.32;36.90;101503.31;107254;1251;70109;-88
2022/07/20 07:32:59;;;;;;;4.90;2.10;;;;;;;26.31;36.77;101503.64;107618;1251;74294;-85
2022/07/20 07:35:28;;;;;;;6.00;2.10;;;;;;;26.37;36.39;101501.63;107458;1251;60947;-87
2022/07/20 07:37:56;;;;;;;5.80;2.20;;;;;;;26.30;36.46;101499.34;107454;1251;60864;-88
2022/07/20 07:40:25;;;;;;;5.90;2.50;;;;;;;26.31;36.74;101497.05;107484;1251;62688;-86
2022/07/20 07:42:54;;;;;;;5.40;2.50;;;;;;;26.36;37.18;101498.57;107491;1251;60947;-87
2022/07/20 07:45:23;;;;;;;4.70;2.60;;;;;;;26.46;37.09;101494.37;107564;1251;59197;-89
2022/07/20 07:47:52;;;;;;;4.20;2.40;;;;;;;26.50;36.98;101485.55;107249;1253;62492;-82
2022/07/20 07:50:22;;;;;;;3.70;2.30;;;;;;;26.64;36.87;101481.95;108149;1250;58956;-84
2022/07/20 07:52:51;;;;;;;5.80;2.40;;;;;;;26.78;36.36;101484.45;108080;1251;61366;-87
2022/07/20 07:55:24;;;;;;;3.80;2.40;;;;;;;26.79;36.81;101477.69;107892;1252;64077;-85
2022/07/20 07:57:53;;;;;;;4.30;2.30;;;;;;;26.83;36.61;101478.21;107674;1251;72510;-85
2022/07/20 08:00:22;;;;;;;7.50;2.40;;;;;;;26.94;35.77;101478.80;107439;1251;60538;-85
2022/07/20 08:02:51;;;;;;;4.20;2.30;;;;;;;27.00;35.86;101470.35;107510;1251;63246;-85
2022/07/20 08:05:21;;;;;;;9.50;2.70;;;;;;;27.03;35.53;101464.02;107587;1251;57478;-84
2022/07/20 08:07:50;;;;;;;5.30;2.30;;;;;;;27.03;35.50;101460.49;107245;1252;61309;-88
2022/07/20 08:10:19;;;;;;;3.90;2.20;;;;;;;27.09;35.21;101461.49;107369;1251;74367;-89
2022/07/20 08:12:48;;;;;;;4.90;2.20;;;;;;;27.15;35.51;101454.71;107285;1251;72627;-89
2022/07/20 08:15:17;;;;;;;8.60;2.90;;;;;;;27.24;35.03;101455.77;107438;1251;70141;-87
2022/07/20 08:17:46;;;;;;;3.90;2.40;;;;;;;27.22;34.69;101455.33;107291;1254;74362;-85
2022/07/20 08:20:21;;;;;;;5.10;2.50;;;;;;;27.24;34.47;101456.27;107268;1253;58983;-85
2022/07/20 08:22:51;;;;;;;4.40;2.40;;;;;;;27.18;34.61;101452.91;107397;1251;58308;-87
2022/07/20 08:25:21;;;;;;;7.70;2.30;;;;;;;27.42;34.90;101447.05;107154;1254;62362;-89
2022/07/20 08:27:51;;;;;;;5.30;2.60;;;;;;;27.54;34.44;101450.46;107223;1251;72591;-85
2022/07/20 08:30:28;;;;;;;6.60;2.80;;;;;;;27.54;34.15;101447.16;107407;1251;61900;-83
2022/07/20 08:33:36;;;;;;;4.50;2.40;;;;;;;27.61;33.65;101448.08;107661;1251;62484;-86
2022/07/20 08:36:06;;;;;;;4.50;2.40;;;;;;;27.71;33.38;101440.33;107659;1251;61044;-87
2022/07/20 08:38:35;;;;;;;6.30;2.70;;;;;;;27.71;33.33;101437.11;107884;1251;61203;-84
2022/07/20 08:41:08;;;;;;;5.20;2.30;;;;;;;27.72;33.62;101432.88;107470;1253;63374;-85
2022/07/20 08:43:36;;;;;;;;;;;;;;;27.86;33.41;101435.93;107422;1250;72262;-87
2022/07/20 08:46:06;;;;;;;4.80;2.20;;;;;;;27.86;33.36;101435.71;107614;1251;60581;-85
2022/07/20 08:48:36;;;;;;;6.90;2.40;;;;;;;27.95;32.97;101424.94;107453;1251;63520;-73
2022/07/20 08:51:05;;;;;;;5.00;2.10;;;;;;;28.09;32.37;101429.87;107660;1247;57604;-74
2022/07/20 08:53:33;;;;;;;3.30;1.90;;;;;;;28.26;31.52;101423.77;107257;1253;61470;-71
2022/07/20 08:56:16;;;;;;;5.90;2.10;;;;;;;28.29;31.72;101416.89;107220;1251;63639;-73
2022/07/20 08:58:45;;;;;;;4.90;2.60;;;;;;;28.30;31.81;101411.94;107257;1251;62110;-72
2022/07/20 09:01:16;;;;;;;3.90;2.10;;;;;;;28.34;31.42;101410.92;107325;1251;60206;-71
2022/07/20 09:04:04;;;;;;;4.20;2.30;;;;;;;28.41;31.60;101408.67;107359;1251;63148;-72
2022/07/20 09:06:50;;;;;;;4.40;2.30;;;;;;;28.58;30.89;101406.41;107202;1251;59098;-72
2022/07/20 09:09:20;;;;;;;4.10;2.10;;;;;;;28.61;31.14;101402.17;107300;1250;59522;-71
2022/07/20 09:11:51;;;;;;;4.10;2.40;;;;;;;28.52;31.39;101400.81;107023;1254;62642;-72
2022/07/20 09:14:48;;;;;;;7.20;2.50;;;;;;;28.65;31.14;101398.86;107280;1251;63398;-73
2022/07/20 09:17:21;;;;;;;3.60;2.20;;;;;;;28.71;30.77;101392.48;107199;1251;69519;-74
2022/07/20 09:20:07;;;;;;;4.50;2.10;;;;;;;28.81;30.69;101391.70;107408;1251;62874;-72
2022/07/20 09:22:38;;;;;;;3.80;1.90;;;;;;;28.89;30.97;101385.09;107312;1251;59027;-74
2022/07/20 09:25:09;;;;;;;4.80;2.20;;;;;;;29.05;30.25;101374.52;107168;1251;61277;-72
2022/07/20 09:27:39;;;;;;;3.80;2.00;;;;;;;29.10;30.52;101375.44;107211;1253;62672;-77
2022/07/20 09:30:16;;;;;;;3.90;2.30;;;;;;;29.16;30.15;101371.84;107116;1251;72794;-77
2022/07/20 09:32:58;;;;;;;4.20;2.10;;;;;;;29.31;30.03;101373.84;107378;1249;70926;-74
2022/07/20 09:35:35;;;;;;;;;;;;;;;29.34;29.91;101368.67;107345;1251;63809;-75
2022/07/20 09:38:07;;;;;;;4.90;2.30;;;;;;;29.36;29.99;101365.02;107351;1251;58989;-75
2022/07/20 09:40:46;;;;;;;5.40;2.30;;;;;;;29.42;30.16;101360.70;107361;1251;61213;-71
2022/07/20 09:43:45;;;;;;;7.30;2.40;;;;;;;29.61;30.02;101358.25;107349;1251;63329;-74
2022/07/20 09:46:23;;;;;;;4.20;1.90;;;;;;;29.71;29.49;101354.06;106959;1254;72278;-71
2022/07/20 09:48:58;;;;;;;5.00;2.00;;;;;;;29.71;29.04;101351.37;107239;1253;60513;-70
2022/07/20 09:51:45;;;;;;;3.90;2.10;;;;;;;29.72;28.44;101347.58;107068;1254;63271;-76
2022/07/20 09:54:17;;;;;;;4.70;2.10;;;;;;;29.62;28.79;101342.89;107303;1251;61287;-73
2022/07/20 09:56:51;;;;;;;4.50;1.90;;;;;;;29.63;28.82;101342.70;107203;1254;62562;-71
2022/07/20 09:59:20;;;;;;;4.80;2.20;;;;;;;29.59;28.52;101335.29;107215;1254;62653;-74
2022/07/20 10:01:53;;;;;;;5.00;2.30;;;;;;;29.83;28.92;101333.96;107245;1251;61795;-70
2022/07/20 10:04:22;;;;;;;4.00;2.10;;;;;;;30.00;28.48;101323.69;107173;1251;68762;-73
2022/07/20 10:06:54;;;;;;;5.60;2.10;;;;;;;29.89;28.13;101320.19;107266;1251;64008;-71
2022/07/20 10:09:23;;;;;;;3.50;1.80;;;;;;;30.01;28.28;101315.39;107303;1251;59183;-75
2022/07/20 10:11:52;;;;;;;4.60;2.30;;;;;;;30.07;27.65;101319.27;107151;1251;61709;-75
2022/07/20 10:14:23;;;;;;;8.10;2.10;;;;;;;30.03;27.93;101314.31;107245;1253;74341;-74
2022/07/20 10:16:54;;;;;;;6.10;2.30;;;;;;;30.06;27.57;101310.40;107370;1251;72817;-74
2022/07/20 10:19:43;;;;;;;3.60;1.80;;;;;;;29.92;28.34;101315.90;107282;1253;70359;-72
2022/07/20 10:22:14;;;;;;;3.70;1.90;;;;;;;30.02;28.10;101312.34;107392;1251;74280;-75
2022/07/20 10:24:44;;;;;;;4.70;2.20;;;;;;;30.03;28.24;101308.02;107156;1251;61701;-75
2022/07/20 10:27:16;;;;;;;6.00;1.90;;;;;;;30.07;28.31;101310.10;107108;1254;58738;-74
2022/07/20 10:29:50;;;;;;;;;;;;;;;30.11;28.06;101299.56;107384;1251;63504;-74
2022/07/20 10:32:28;;;;;;;5.30;2.00;;;;;;;30.43;28.13;101288.23;107281;1251;72235;-75
2022/07/20 10:35:24;;;;;;;4.10;1.90;;;;;;;30.64;27.56;101283.85;107274;1253;59761;-71
2022/07/20 10:37:56;;;;;;;4.20;2.20;;;;;;;31.13;27.28;101287.87;107250;1251;63611;-80
2022/07/20 10:40:28;;;;;;;4.70;1.80;;;;;;;31.45;26.23;101279.70;107072;1251;61152;-77
2022/07/20 10:43:06;;;;;;;7.20;2.70;;;;;;;31.69;25.88;101278.25;107255;1251;58832;-78
2022/07/20 10:45:35;;;;;;;4.70;2.20;;;;;;;31.83;25.90;101271.77;107331;1251;73038;-76
2022/07/20 10:48:11;;;;;;;4.30;2.00;;;;;;;31.80;26.11;101268.08;107205;1254;62909;-75
2022/07/20 10:50:41;;;;;;;7.10;2.10;;;;;;;31.42;26.50;101261.44;107305;1254;60011;-83
2022/07/20 10:53:10;;;;;;;3.10;1.80;;;;;;;31.88;25.55;101265.96;107234;1252;63312;-78
2022/07/20 10:55:42;;;;;;;4.20;2.10;;;;;;;32.05;25.10;101270.17;107244;1254;60557;-86
2022/07/20 10:58:21;;;;;;;2.70;1.60;;;;;;;32.05;24.86;101270.28;107282;1253;57643;-81
2022/07/20 11:00:56;;;;;;;4.30;2.20;;;;;;;32.21;24.80;101262.96;107164;1253;64146;-80
2022/07/20 11:03:32;;;;;;;5.70;2.70;;;;;;;32.51;24.85;101254.34;107270;1253;62096;-81
2022/07/20 11:06:19;;;;;;;4.60;2.00;;;;;;;32.85;24.22;101253.86;107120;1254;70153;-78
2022/07/20 11:09:00;;;;;;;5.00;2.20;;;;;;;33.06;23.41;101246.91;107257;1254;63532;-76
2022/07/20 11:11:35;;;;;;;4.00;1.90;;;;;;;33.06;23.54;101248.38;107000;1254;60814;-76
2022/07/20 11:14:09;;;;;;;4.80;1.90;;;;;;;32.94;23.58;101249.37;107248;1254;58939;-79
2022/07/20 11:16:38;;;;;;;6.20;2.10;;;;;;;32.38;24.05;101250.16;107258;1253;63437;-82
2022/07/20 11:19:08;;;;;;;3.70;2.10;;;;;;;32.56;24.30;101245.89;107542;1251;71447;-76
2022/07/20 11:21:40;;;;;;;4.60;2.00;;;;;;;33.06;23.82;101237.20;107298;1251;70020;-79
2022/07/20 11:24:28;;;;;;;3.30;1.90;;;;;;;33.48;22.75;101240.94;107124;1251;73107;-81
2022/07/20 11:27:11;;;;;;;5.20;1.80;;;;;;;33.44;22.21;101236.86;107304;1251;62294;-81
2022/07/20 11:29:52;;;;;;;5.30;2.20;;;;;;;33.84;22.10;101235.52;107537;1251;61864;-78
2022/07/20 11:32:21;;;;;;;3.20;1.90;;;;;;;33.64;22.67;101231.23;107310;1251;74131;-77
2022/07/20 11:34:52;;;;;;;5.00;2.10;;;;;;;33.35;22.50;101225.09;107396;1251;72516;-80
2022/07/20 11:37:22;;;;;;;7.00;2.30;;;;;;;33.86;22.16;101224.59;107330;1252;60636;-79
2022/07/20 11:43:15;;;;;;;4.90;2.00;;;;;;;33.71;22.01;101225.45;107511;1254;61299;-80